createdAt,value
2019-04-05T00:00:35.834Z,69.50
2019-04-05T00:06:05.229Z,69.80
2019-04-05T00:11:39.874Z,69.90
2019-04-05T00:17:07.711Z,70.10
2019-04-05T00:22:37.157Z,70.10
2019-04-05T00:28:07.435Z,70.20
2019-04-05T00:33:39.285Z,70.20
2019-04-05T00:39:10.783Z,70.20
2019-04-05T00:44:40.248Z,70.40
2019-04-05T00:50:10.536Z,70.60
2019-04-05T00:55:40.723Z,70.60
2019-04-05T01:01:11.151Z,70.70
2019-04-05T01:06:40.612Z,70.70
2019-04-05T01:12:12.782Z,70.80
2019-04-05T01:17:43.019Z,70.80
2019-04-05T01:23:12.989Z,70.90
2019-04-05T01:28:42.513Z,71.00
2019-04-05T01:34:11.898Z,71.00
2019-04-05T01:39:42.855Z,71.20
2019-04-05T01:45:12.471Z,71.20
2019-04-05T01:50:41.989Z,71.30
2019-04-05T01:56:11.305Z,71.20
2019-04-05T02:01:42.131Z,71.00
2019-04-05T02:07:11.629Z,71.10
2019-04-05T02:12:41.550Z,70.90
2019-04-05T02:18:10.994Z,70.70
2019-04-05T02:23:44.923Z,70.90
2019-04-05T02:29:14.407Z,70.90
2019-04-05T02:34:43.919Z,70.80
2019-04-05T02:40:16.591Z,70.80
2019-04-05T02:45:48.243Z,70.80
2019-04-05T02:51:21.906Z,70.90
2019-04-05T02:56:51.982Z,71.00
2019-04-05T03:02:22.182Z,71.00
2019-04-05T03:07:52.131Z,70.80
2019-04-05T03:13:24.178Z,70.90
2019-04-05T03:19:04.374Z,70.90
2019-04-05T03:24:37.162Z,70.90
2019-04-05T03:30:09.364Z,70.80
2019-04-05T03:35:38.772Z,70.80
2019-04-05T03:41:08.557Z,70.80
2019-04-05T03:46:54.856Z,70.80
2019-04-05T03:52:09.563Z,70.80
2019-04-05T03:57:39.000Z,70.70
2019-04-05T04:03:08.437Z,70.70
2019-04-05T04:08:38.034Z,70.70
2019-04-05T04:14:08.083Z,70.70
2019-04-05T04:19:38.060Z,70.60
2019-04-05T04:25:08.752Z,70.60
2019-04-05T04:30:39.001Z,70.50
2019-04-05T04:36:12.764Z,70.60
2019-04-05T04:41:40.112Z,70.60
2019-04-05T04:47:09.658Z,70.60
2019-04-05T04:52:39.420Z,70.50
2019-04-05T04:58:10.446Z,70.50
2019-04-05T05:03:42.075Z,70.60
2019-04-05T05:09:11.711Z,70.50
2019-04-05T05:14:41.283Z,70.50
2019-04-05T05:20:11.552Z,70.40
2019-04-05T05:25:41.118Z,70.40
2019-04-05T05:31:10.687Z,70.50
2019-04-05T05:36:40.093Z,70.50
2019-04-05T05:42:11.185Z,70.50
2019-04-05T05:47:51.284Z,70.50
2019-04-05T05:53:12.862Z,70.50
2019-04-05T05:58:42.290Z,71.00
2019-04-05T06:04:12.825Z,70.70
2019-04-05T06:09:42.289Z,70.80
2019-04-05T06:15:12.453Z,70.80
2019-04-05T06:20:42.857Z,71.00
2019-04-05T06:26:12.187Z,71.20
2019-04-05T06:31:41.720Z,71.40
2019-04-05T06:37:11.035Z,71.60
2019-04-05T06:42:40.373Z,71.60
2019-04-05T06:48:19.181Z,71.70
2019-04-05T06:53:41.034Z,71.90
2019-04-05T06:59:10.424Z,72.60
2019-04-05T07:04:40.171Z,72.00
2019-04-05T07:10:09.871Z,72.10
2019-04-05T07:15:39.232Z,72.10
2019-04-05T07:21:08.701Z,72.00
2019-04-05T07:26:38.100Z,71.90
2019-04-05T07:32:07.504Z,72.10
2019-04-05T07:37:37.999Z,71.90
2019-04-05T07:43:07.492Z,71.70
2019-04-05T07:48:44.763Z,71.60
2019-04-05T07:54:07.986Z,71.40
2019-04-05T07:59:37.383Z,71.40
2019-04-05T08:05:08.371Z,71.60
2019-04-05T08:10:37.834Z,71.20
2019-04-05T08:16:07.620Z,71.00
2019-04-05T08:21:36.868Z,70.80
2019-04-05T08:27:06.268Z,70.90
2019-04-05T08:32:35.989Z,71.10
2019-04-05T08:38:05.955Z,71.00
2019-04-05T08:43:35.397Z,71.00
2019-04-05T08:49:10.919Z,70.80
2019-04-05T08:54:37.112Z,70.60
2019-04-05T09:00:09.393Z,70.50
2019-04-05T09:05:38.940Z,70.40
2019-04-05T09:11:08.285Z,70.10
2019-04-05T09:16:37.711Z,70.20
2019-04-05T09:22:07.111Z,69.60
2019-04-05T09:27:36.591Z,69.30
2019-04-05T09:33:06.155Z,69.00
2019-04-05T09:38:35.563Z,68.70
2019-04-05T09:44:05.768Z,68.50
2019-04-05T09:49:37.039Z,68.30
2019-04-05T09:55:07.893Z,68.30
2019-04-05T10:00:38.690Z,68.10
2019-04-05T10:06:08.166Z,68.30
2019-04-05T10:11:37.693Z,68.20
2019-04-05T10:17:07.987Z,68.00
2019-04-05T10:22:40.352Z,67.70
2019-04-05T10:28:12.290Z,67.70
2019-04-05T10:33:43.445Z,67.30
2019-04-05T10:39:14.945Z,67.30
2019-04-05T10:44:45.401Z,67.20
2019-04-05T10:50:16.414Z,67.10
2019-04-05T10:55:45.900Z,66.60
2019-04-05T11:01:15.306Z,66.30
2019-04-05T11:06:44.799Z,66.40
2019-04-05T11:12:14.325Z,66.50
2019-04-05T11:17:43.722Z,66.10
2019-04-05T11:23:13.220Z,65.90
2019-04-05T11:28:42.630Z,65.40
2019-04-05T11:34:12.191Z,65.30
2019-04-05T11:39:41.645Z,65.40
2019-04-05T11:45:11.325Z,65.20
2019-04-05T11:50:41.002Z,64.80
2019-04-05T11:56:14.871Z,64.50
2019-04-05T12:01:49.113Z,64.90
2019-04-05T12:07:21.617Z,64.60
2019-04-05T12:12:49.853Z,64.00
2019-04-05T12:18:19.660Z,63.30
2019-04-05T12:23:49.318Z,62.90
2019-04-05T12:29:18.659Z,62.90
2019-04-05T12:34:49.531Z,62.60
2019-04-05T12:40:20.898Z,62.30
2019-04-05T12:45:50.352Z,62.10
2019-04-05T12:51:19.747Z,62.10
2019-04-05T12:56:49.294Z,62.20
2019-04-05T13:02:27.882Z,61.50
2019-04-05T13:07:50.651Z,61.60
2019-04-05T13:13:21.177Z,61.50
2019-04-05T13:18:50.558Z,61.30
2019-04-05T13:24:19.868Z,59.70
2019-04-05T13:29:49.683Z,59.80
2019-04-05T13:35:18.995Z,59.50
2019-04-05T13:40:48.396Z,59.20
2019-04-05T13:46:22.208Z,58.70
2019-04-05T13:51:49.207Z,57.60
2019-04-05T13:57:18.668Z,56.70
2019-04-05T14:02:50.015Z,57.10
2019-04-05T14:08:19.225Z,57.90
2019-04-05T14:13:48.556Z,58.10
2019-04-05T14:19:19.133Z,57.60
2019-04-05T14:24:50.401Z,57.60
2019-04-05T14:30:20.023Z,57.70
2019-04-05T14:35:49.363Z,58.00
2019-04-05T14:41:18.825Z,58.00
2019-04-05T14:46:48.146Z,58.00
2019-04-05T14:52:18.094Z,58.20
2019-04-05T14:57:47.550Z,58.00
2019-04-05T15:03:17.181Z,57.70
2019-04-05T15:08:48.055Z,56.90
2019-04-05T15:14:17.712Z,56.70
2019-04-05T15:19:47.049Z,57.10
2019-04-05T15:25:18.810Z,57.50
2019-04-05T15:30:49.494Z,57.40
2019-04-05T15:36:19.345Z,58.00
2019-04-05T15:41:48.814Z,58.10
2019-04-05T15:47:18.303Z,58.40
2019-04-05T15:52:47.726Z,58.70
2019-04-05T15:58:17.206Z,58.90
2019-04-05T16:03:52.799Z,60.10
2019-04-05T16:09:22.532Z,60.60
2019-04-05T16:14:52.158Z,60.80
2019-04-05T16:20:22.001Z,61.10
2019-04-05T16:25:51.620Z,61.40
2019-04-05T16:31:21.193Z,61.70
2019-04-05T16:36:50.855Z,61.90
2019-04-05T16:42:20.373Z,61.90
2019-04-05T16:47:49.902Z,61.70
2019-04-05T16:53:19.930Z,61.70
2019-04-05T16:58:49.589Z,61.90
2019-04-05T17:04:20.013Z,61.90
2019-04-05T17:09:49.685Z,61.90
2019-04-05T17:15:19.252Z,62.10
2019-04-05T17:20:49.073Z,62.80
2019-04-05T17:26:18.460Z,62.30
2019-04-05T17:31:47.892Z,62.50
2019-04-05T17:37:17.500Z,62.70
2019-04-05T17:42:47.078Z,62.90
2019-04-05T17:48:16.450Z,63.20
2019-04-05T17:53:49.137Z,63.40
2019-04-05T17:59:20.605Z,63.60
2019-04-05T18:04:50.433Z,64.10
2019-04-05T18:10:21.018Z,64.30
2019-04-05T18:16:08.290Z,64.50
2019-04-05T18:28:18.045Z,65.20
2019-04-05T18:33:47.411Z,65.50
2019-04-05T18:39:17.051Z,65.70
2019-04-05T18:44:46.635Z,65.90
2019-04-05T18:50:16.311Z,66.00
2019-04-05T18:55:46.003Z,66.20
2019-04-05T19:01:16.550Z,66.30
2019-04-05T19:06:48.664Z,66.60
2019-04-05T19:12:20.069Z,66.70
2019-04-05T19:17:49.814Z,66.90
2019-04-05T19:23:19.161Z,67.10
2019-04-05T19:28:48.586Z,67.20
2019-04-05T19:51:03.709Z,68.00
2019-04-05T19:56:42.279Z,68.10
2019-04-05T20:02:19.201Z,68.20
2019-04-05T20:08:26.963Z,68.40
2019-04-05T20:13:58.668Z,68.60
2019-04-05T20:19:28.383Z,68.50
2019-04-05T20:24:58.036Z,68.80
2019-04-05T20:30:27.698Z,69.00
2019-04-05T20:35:57.214Z,69.40
2019-04-05T20:41:27.862Z,69.30
2019-04-05T20:46:57.380Z,69.30
2019-04-05T20:52:27.907Z,69.50
2019-04-05T20:57:57.760Z,69.40
2019-04-05T21:03:27.422Z,69.50
2019-04-05T21:08:57.077Z,69.60
2019-04-05T21:14:28.681Z,69.80
2019-04-05T21:19:58.428Z,70.00
2019-04-05T21:25:28.220Z,69.90
2019-04-05T21:30:58.041Z,70.10
2019-04-05T21:36:27.787Z,70.20
2019-04-05T21:41:57.422Z,70.40
2019-04-05T21:47:26.903Z,70.50
2019-04-05T21:52:56.434Z,70.50
2019-04-05T21:58:26.044Z,70.60
2019-04-05T22:03:56.004Z,70.60
2019-04-05T22:09:25.593Z,70.60
2019-04-05T22:14:55.024Z,70.70
2019-04-05T22:20:24.573Z,70.70
2019-04-05T22:25:55.830Z,70.70
2019-04-05T22:31:25.283Z,70.80
2019-04-05T22:36:55.679Z,70.80
2019-04-05T22:42:27.172Z,70.80
2019-04-05T22:47:57.587Z,70.80
2019-04-05T22:53:27.083Z,70.90
2019-04-05T22:58:56.719Z,70.90
2019-04-05T23:04:26.186Z,70.80
2019-04-05T23:09:55.815Z,70.90
2019-04-05T23:15:25.322Z,71.10
2019-04-05T23:20:54.868Z,71.20
2019-04-05T23:26:25.909Z,71.20
2019-04-05T23:31:55.422Z,71.00
2019-04-05T23:37:25.066Z,71.00
2019-04-05T23:42:54.546Z,71.10
2019-04-05T23:48:23.922Z,71.00
2019-04-05T23:53:53.382Z,71.00
2019-04-05T23:59:22.675Z,71.00
